createdAt,value
2023-03-06T00:00:35.490Z,15.60
2023-03-06T00:03:03.424Z,11.57
2023-03-06T00:05:30.843Z,14.85
2023-03-06T00:07:58.262Z,13.13
2023-03-06T00:10:29.101Z,13.35
2023-03-06T00:12:58.917Z,13.57
2023-03-06T00:15:27.472Z,12.68
2023-03-06T00:17:55.951Z,14.65
2023-03-06T00:20:23.691Z,15.43
2023-03-06T00:22:51.470Z,17.02
2023-03-06T00:25:22.174Z,14.50
2023-03-06T00:27:50.425Z,11.27
2023-03-06T00:30:20.854Z,13.77
2023-03-06T00:32:48.731Z,16.10
2023-03-06T00:35:16.825Z,17.88
2023-03-06T00:37:44.458Z,17.02
2023-03-06T00:40:15.284Z,18.70
2023-03-06T00:42:42.740Z,20.63
2023-03-06T00:45:10.723Z,14.55
2023-03-06T00:47:38.250Z,19.38
2023-03-06T00:50:06.549Z,17.67
2023-03-06T00:52:38.737Z,16.50
2023-03-06T00:55:06.750Z,19.00
2023-03-06T00:57:34.086Z,18.33
2023-03-06T01:00:01.713Z,17.73
2023-03-06T01:02:29.139Z,16.70
2023-03-06T01:04:56.542Z,18.65
2023-03-06T01:07:23.933Z,21.90
2023-03-06T01:09:51.372Z,18.80
2023-03-06T01:12:18.805Z,22.05
2023-03-06T01:14:46.143Z,20.10
2023-03-06T01:17:14.113Z,21.20
2023-03-06T01:19:41.823Z,18.23
2023-03-06T01:22:09.121Z,17.60
2023-03-06T01:24:36.434Z,17.75
2023-03-06T01:27:03.800Z,19.48
2023-03-06T01:29:31.325Z,18.77
2023-03-06T01:31:58.732Z,21.40
2023-03-06T01:34:26.084Z,16.58
2023-03-06T01:36:53.373Z,20.50
2023-03-06T01:39:20.754Z,17.95
2023-03-06T01:41:48.065Z,23.95
2023-03-06T01:44:15.421Z,19.15
2023-03-06T01:46:44.103Z,19.77
2023-03-06T01:49:27.483Z,17.50
2023-03-06T01:52:16.594Z,17.02
2023-03-06T01:54:50.770Z,16.40
2023-03-06T01:57:19.380Z,15.35
2023-03-06T01:59:51.551Z,14.30
2023-03-06T02:02:18.936Z,14.32
2023-03-06T02:04:47.196Z,16.50
2023-03-06T02:07:17.683Z,18.55
2023-03-06T02:09:45.015Z,17.17
2023-03-06T02:12:14.889Z,18.58
2023-03-06T02:14:43.034Z,14.80
2023-03-06T02:17:12.461Z,17.20
2023-03-06T02:20:07.943Z,16.48
2023-03-06T02:23:27.578Z,18.05
2023-03-06T02:25:55.358Z,15.82
2023-03-06T02:28:24.187Z,16.75
2023-03-06T02:30:53.908Z,14.13
2023-03-06T02:33:24.271Z,15.00
2023-03-06T02:35:54.945Z,18.48
2023-03-06T02:38:25.652Z,14.45
2023-03-06T02:40:53.016Z,16.20
2023-03-06T02:43:26.081Z,18.08
2023-03-06T02:45:54.136Z,14.38
2023-03-06T02:48:23.269Z,13.85
2023-03-06T02:50:50.812Z,13.20
2023-03-06T02:53:19.771Z,14.63
2023-03-06T02:55:47.646Z,14.48
2023-03-06T02:58:15.130Z,17.65
2023-03-06T03:00:42.516Z,17.15
2023-03-06T03:03:12.660Z,13.45
2023-03-06T03:05:40.045Z,16.23
2023-03-06T03:08:07.630Z,15.60
2023-03-06T03:10:34.996Z,15.27
2023-03-06T03:13:02.332Z,16.40
2023-03-06T03:15:29.939Z,20.60
2023-03-06T03:17:57.223Z,20.40
2023-03-06T03:20:24.624Z,18.13
2023-03-06T03:22:54.317Z,18.00
2023-03-06T03:25:22.726Z,15.15
2023-03-06T03:27:50.029Z,19.70
2023-03-06T03:30:17.950Z,16.40
2023-03-06T03:32:45.556Z,15.85
2023-03-06T03:35:13.095Z,13.80
2023-03-06T03:37:40.493Z,13.00
2023-03-06T03:40:10.310Z,18.75
2023-03-06T03:42:37.769Z,14.88
2023-03-06T03:45:05.464Z,11.48
2023-03-06T03:47:32.775Z,12.48
2023-03-06T03:50:00.120Z,9.90
2023-03-06T03:52:27.453Z,7.80
2023-03-06T03:54:54.965Z,9.73
2023-03-06T03:57:22.288Z,13.85
2023-03-06T03:59:49.734Z,10.85
2023-03-06T04:02:17.164Z,8.68
2023-03-06T04:04:44.587Z,8.85
2023-03-06T04:07:12.114Z,9.43
2023-03-06T04:09:39.421Z,12.30
2023-03-06T04:12:07.375Z,8.73
2023-03-06T04:14:35.027Z,6.97
2023-03-06T04:17:02.333Z,9.68
2023-03-06T04:19:29.616Z,11.10
2023-03-06T04:21:56.973Z,12.13
2023-03-06T04:24:25.225Z,14.10
2023-03-06T04:26:52.707Z,11.95
2023-03-06T04:29:20.066Z,11.75
2023-03-06T04:31:47.443Z,10.15
2023-03-06T04:34:14.916Z,8.40
2023-03-06T04:36:45.247Z,9.68
2023-03-06T04:39:13.449Z,8.95
2023-03-06T04:41:41.642Z,9.20
2023-03-06T04:44:09.526Z,12.63
2023-03-06T04:46:37.243Z,8.20
2023-03-06T04:49:04.627Z,9.15
2023-03-06T04:51:32.398Z,10.98
2023-03-06T04:54:00.177Z,8.30
2023-03-06T04:56:27.498Z,12.15
2023-03-06T04:58:54.910Z,11.05
2023-03-06T05:01:22.334Z,9.32
2023-03-06T05:03:52.482Z,10.85
2023-03-06T05:06:20.059Z,8.93
2023-03-06T05:08:47.758Z,8.55
2023-03-06T05:11:15.138Z,11.18
2023-03-06T05:13:42.917Z,12.50
2023-03-06T05:16:10.272Z,12.75
2023-03-06T05:18:37.912Z,11.20
2023-03-06T05:21:07.310Z,11.80
2023-03-06T05:23:39.391Z,12.20
2023-03-06T05:26:10.985Z,13.30
2023-03-06T05:28:38.393Z,9.23
2023-03-06T05:31:06.253Z,13.00
2023-03-06T05:33:34.656Z,8.90
2023-03-06T05:36:02.423Z,12.23
2023-03-06T05:38:30.119Z,12.45
2023-03-06T05:40:57.939Z,14.57
2023-03-06T05:43:25.299Z,11.25
2023-03-06T05:46:04.745Z,10.18
2023-03-06T05:48:33.291Z,12.63
2023-03-06T05:51:01.557Z,12.10
2023-03-06T05:53:31.788Z,13.75
2023-03-06T05:56:01.925Z,17.80
2023-03-06T05:58:30.128Z,14.05
2023-03-06T06:00:57.733Z,15.18
2023-03-06T06:03:25.338Z,15.07
2023-03-06T06:05:53.299Z,14.90
2023-03-06T06:08:21.868Z,16.40
2023-03-06T06:10:50.996Z,15.60
2023-03-06T06:13:20.166Z,19.00
2023-03-06T06:15:47.576Z,18.45
2023-03-06T06:18:15.011Z,15.30
2023-03-06T06:20:42.317Z,19.60
2023-03-06T06:23:11.724Z,18.33
2023-03-06T06:25:39.349Z,19.33
2023-03-06T06:28:06.879Z,18.60
2023-03-06T06:30:34.765Z,20.98
2023-03-06T06:33:02.077Z,22.60
2023-03-06T06:35:29.470Z,17.10
2023-03-06T06:37:56.806Z,19.83
2023-03-06T06:40:25.661Z,19.52
2023-03-06T06:42:53.303Z,16.88
2023-03-06T06:45:20.653Z,17.30
2023-03-06T06:47:50.205Z,22.48
2023-03-06T06:50:17.779Z,22.40
2023-03-06T06:52:45.105Z,19.77
2023-03-06T06:55:20.997Z,20.08
2023-03-06T06:57:48.401Z,20.00
2023-03-06T07:00:16.932Z,19.83
2023-03-06T07:02:44.510Z,22.55
2023-03-06T07:05:12.029Z,23.90
2023-03-06T07:07:39.483Z,21.00
2023-03-06T07:10:18.861Z,22.65
2023-03-06T07:12:47.507Z,20.52
2023-03-06T07:15:16.135Z,21.83
2023-03-06T07:17:43.867Z,21.95
2023-03-06T07:20:13.092Z,23.33
2023-03-06T07:22:50.237Z,21.92
2023-03-06T07:25:18.825Z,22.30
2023-03-06T07:27:52.672Z,26.70
2023-03-06T07:30:24.550Z,23.48
2023-03-06T07:32:56.841Z,20.42
2023-03-06T07:35:24.778Z,26.00
2023-03-06T07:37:52.460Z,20.75
2023-03-06T07:40:20.683Z,24.85
2023-03-06T07:42:48.330Z,23.75
2023-03-06T07:45:16.012Z,22.10
2023-03-06T07:47:43.370Z,25.48
2023-03-06T07:50:11.530Z,21.70
2023-03-06T07:52:39.275Z,23.67
2023-03-06T07:55:12.431Z,25.80
2023-03-06T07:57:44.255Z,22.38
2023-03-06T08:00:15.849Z,26.30
2023-03-06T08:02:44.118Z,20.13
2023-03-06T08:05:15.087Z,23.13
2023-03-06T08:07:44.283Z,19.77
2023-03-06T08:10:16.580Z,21.52
2023-03-06T08:12:44.206Z,21.60
2023-03-06T08:15:13.075Z,22.13
2023-03-06T08:17:41.113Z,21.38
2023-03-06T08:20:10.455Z,20.45
2023-03-06T08:22:41.438Z,17.15
2023-03-06T08:25:10.329Z,15.32
2023-03-06T08:27:38.371Z,16.35
2023-03-06T08:30:09.089Z,12.68
2023-03-06T08:32:38.669Z,12.07
2023-03-06T08:35:07.699Z,10.85
2023-03-06T08:37:35.435Z,13.73
2023-03-06T08:40:05.666Z,12.05
2023-03-06T08:42:33.788Z,12.05
2023-03-06T08:45:01.211Z,12.43
2023-03-06T08:47:28.664Z,12.05
2023-03-06T08:49:56.139Z,9.20
2023-03-06T08:52:23.777Z,10.80
2023-03-06T08:54:51.124Z,11.05
2023-03-06T08:57:20.271Z,9.65
2023-03-06T08:59:47.650Z,9.65
2023-03-06T09:02:15.288Z,10.40
2023-03-06T09:04:42.719Z,11.75
2023-03-06T09:07:10.217Z,11.38
2023-03-06T09:09:37.601Z,11.20
2023-03-06T09:12:05.249Z,14.27
2023-03-06T09:14:32.807Z,15.38
2023-03-06T09:17:00.178Z,15.60
2023-03-06T09:19:27.516Z,13.85
2023-03-06T09:21:54.939Z,15.38
2023-03-06T09:24:22.370Z,14.82
2023-03-06T09:26:51.592Z,13.60
2023-03-06T09:29:19.232Z,15.57
2023-03-06T09:31:47.487Z,16.33
2023-03-06T09:34:15.504Z,11.13
2023-03-06T09:36:55.983Z,13.10
2023-03-06T09:39:35.401Z,14.38
2023-03-06T09:42:05.074Z,18.58
2023-03-06T09:44:36.417Z,11.90
2023-03-06T09:47:26.136Z,12.20
2023-03-06T09:50:35.014Z,12.30
2023-03-06T09:53:11.985Z,12.95
2023-03-06T09:55:41.528Z,14.25
2023-03-06T09:58:20.423Z,10.18
2023-03-06T10:01:00.889Z,14.40
2023-03-06T10:03:42.214Z,13.15
2023-03-06T10:06:33.636Z,13.75
2023-03-06T10:09:27.510Z,12.13
2023-03-06T10:12:04.521Z,12.75
2023-03-06T10:14:44.037Z,12.75
2023-03-06T10:17:18.656Z,12.27
2023-03-06T10:19:49.434Z,14.63
2023-03-06T10:22:25.683Z,13.93
2023-03-06T10:25:15.924Z,15.35
2023-03-06T10:27:48.879Z,13.95
2023-03-06T10:33:27.342Z,15.65
2023-03-06T10:35:56.378Z,13.88
2023-03-06T10:38:27.701Z,14.55
2023-03-06T10:41:13.394Z,19.13
2023-03-06T10:44:08.003Z,16.65
2023-03-06T10:46:36.410Z,12.27
2023-03-06T10:49:32.431Z,15.27
2023-03-06T10:51:59.909Z,11.80
2023-03-06T10:54:28.554Z,13.05
2023-03-06T10:56:56.128Z,9.95
2023-03-06T10:59:28.434Z,8.48
2023-03-06T11:01:58.350Z,10.75
2023-03-06T11:04:29.304Z,10.65
2023-03-06T11:07:09.203Z,13.25
2023-03-06T11:09:37.212Z,14.52
2023-03-06T11:12:23.583Z,12.73
2023-03-06T11:15:17.874Z,12.00
2023-03-06T11:17:54.729Z,11.75
2023-03-06T11:20:25.136Z,13.90
2023-03-06T11:23:16.102Z,15.68
2023-03-06T11:26:06.678Z,15.88
2023-03-06T11:28:50.826Z,13.88
2023-03-06T11:31:22.073Z,14.18
2023-03-06T11:33:55.433Z,14.10
2023-03-06T11:36:39.053Z,12.43
2023-03-06T11:39:25.061Z,14.88
2023-03-06T11:41:59.810Z,15.60
2023-03-06T11:44:56.833Z,14.68
2023-03-06T11:47:34.112Z,12.40
2023-03-06T11:50:32.234Z,12.63
2023-03-06T11:53:01.744Z,11.10
2023-03-06T11:56:01.544Z,14.80
2023-03-06T11:58:58.126Z,11.80
2023-03-06T12:01:31.717Z,13.18
2023-03-06T12:04:16.013Z,13.25
2023-03-06T12:07:07.562Z,13.68
2023-03-06T12:09:37.965Z,14.18
2023-03-06T12:12:43.892Z,9.27
2023-03-06T12:15:23.216Z,12.55
2023-03-06T12:18:15.191Z,10.25
2023-03-06T12:20:51.166Z,10.15
2023-03-06T12:23:33.631Z,9.57
2023-03-06T12:26:37.018Z,9.75
2023-03-06T12:29:14.121Z,10.77
2023-03-06T12:31:51.528Z,11.70
2023-03-06T12:34:21.905Z,12.40
2023-03-06T12:37:10.934Z,12.48
2023-03-06T12:39:47.150Z,12.02
2023-03-06T12:42:49.507Z,14.80
2023-03-06T12:45:44.315Z,17.67
2023-03-06T12:48:38.887Z,14.73
2023-03-06T12:51:07.616Z,14.82
2023-03-06T12:53:35.052Z,13.13
2023-03-06T12:56:03.202Z,16.27
2023-03-06T12:58:30.675Z,11.18
2023-03-06T13:01:35.477Z,12.52
2023-03-06T13:04:21.757Z,13.90
2023-03-06T13:07:09.338Z,14.48
2023-03-06T13:09:55.233Z,14.15
2023-03-06T13:12:30.426Z,14.85
2023-03-06T13:15:33.068Z,11.63
2023-03-06T13:18:00.944Z,13.57
2023-03-06T13:20:29.752Z,14.25
2023-03-06T13:22:58.478Z,18.52
2023-03-06T13:25:32.688Z,17.77
2023-03-06T13:28:03.374Z,12.77
2023-03-06T13:30:40.119Z,13.27
2023-03-06T13:33:31.440Z,12.18
2023-03-06T13:36:00.435Z,12.00
2023-03-06T13:38:41.451Z,14.57
2023-03-06T13:41:24.786Z,12.05
2023-03-06T13:43:57.375Z,13.23
2023-03-06T13:46:38.441Z,13.80
2023-03-06T13:49:08.897Z,11.60
2023-03-06T13:51:47.354Z,12.38
2023-03-06T13:54:21.243Z,12.07
2023-03-06T13:57:05.629Z,20.83
2023-03-06T14:00:21.827Z,13.55
2023-03-06T14:03:29.586Z,15.35
2023-03-06T14:05:58.849Z,12.52
2023-03-06T14:08:31.805Z,12.95
2023-03-06T14:16:34.895Z,15.15
2023-03-06T14:19:17.140Z,20.42
2023-03-06T14:21:51.323Z,15.02
2023-03-06T14:24:20.815Z,17.20
2023-03-06T14:26:50.816Z,19.15
2023-03-06T14:29:26.405Z,18.90
2023-03-06T14:31:59.057Z,18.52
2023-03-06T14:34:30.362Z,17.20
2023-03-06T14:37:01.494Z,19.90
2023-03-06T14:39:42.800Z,20.70
2023-03-06T14:42:16.073Z,23.08
2023-03-06T14:44:43.580Z,26.13
2023-03-06T14:47:30.036Z,21.98
2023-03-06T14:50:23.525Z,23.48
2023-03-06T14:52:57.410Z,24.33
2023-03-06T14:55:27.506Z,24.48
2023-03-06T14:58:17.043Z,21.80
2023-03-06T15:00:46.235Z,23.45
2023-03-06T15:03:18.469Z,26.30
2023-03-06T15:05:51.403Z,24.70
2023-03-06T15:11:02.094Z,28.25
2023-03-06T15:13:30.756Z,31.00
2023-03-06T15:16:04.500Z,28.77
2023-03-06T15:18:38.783Z,35.50
2023-03-06T15:21:22.413Z,34.13
2023-03-06T15:23:52.381Z,36.90
2023-03-06T15:26:36.832Z,32.63
2023-03-06T15:29:10.826Z,31.67
2023-03-06T15:31:47.614Z,29.30
2023-03-06T15:34:17.267Z,32.65
2023-03-06T15:36:48.469Z,33.05
2023-03-06T15:39:38.195Z,32.88
2023-03-06T15:42:21.953Z,35.83
2023-03-06T15:44:51.698Z,32.78
2023-03-06T15:47:19.540Z,29.42
2023-03-06T15:49:49.023Z,31.63
2023-03-06T15:52:16.349Z,27.80
2023-03-06T15:54:46.355Z,28.02
2023-03-06T15:57:23.248Z,23.65
2023-03-06T15:59:51.445Z,71.57
2023-03-06T16:02:21.086Z,23.95
2023-03-06T16:04:49.354Z,22.70
2023-03-06T16:07:16.912Z,18.80
2023-03-06T16:09:45.718Z,20.40
2023-03-06T16:12:22.870Z,18.23
2023-03-06T16:14:50.654Z,18.00
2023-03-06T16:17:18.598Z,19.63
2023-03-06T16:19:46.000Z,19.55
2023-03-06T16:22:13.826Z,19.77
2023-03-06T16:24:41.921Z,23.90
2023-03-06T16:27:18.096Z,24.80
2023-03-06T16:29:45.702Z,24.80
2023-03-06T16:32:13.258Z,23.88
2023-03-06T16:34:40.800Z,27.73
2023-03-06T16:37:11.373Z,27.48
2023-03-06T16:39:38.808Z,28.92
2023-03-06T16:42:06.215Z,27.73
2023-03-06T16:44:33.536Z,27.65
2023-03-06T16:47:01.549Z,30.15
2023-03-06T16:49:29.125Z,29.65
2023-03-06T16:51:56.601Z,33.45
2023-03-06T16:54:26.176Z,32.72
2023-03-06T16:56:53.594Z,31.48
2023-03-06T16:59:21.016Z,34.95
2023-03-06T17:01:48.435Z,34.85
2023-03-06T17:04:15.960Z,32.80
2023-03-06T17:06:43.357Z,32.33
2023-03-06T17:09:11.045Z,34.70
2023-03-06T17:11:39.025Z,35.40
2023-03-06T17:14:06.965Z,34.15
2023-03-06T17:16:34.534Z,35.15
2023-03-06T17:19:02.575Z,33.75
2023-03-06T17:21:34.558Z,33.17
2023-03-06T17:24:04.782Z,34.93
2023-03-06T17:26:32.138Z,33.85
2023-03-06T17:29:02.200Z,33.45
2023-03-06T17:31:29.931Z,35.42
2023-03-06T17:34:01.237Z,40.08
2023-03-06T17:36:29.914Z,38.50
2023-03-06T17:39:02.068Z,40.38
2023-03-06T17:41:29.916Z,41.22
2023-03-06T17:43:58.285Z,39.83
2023-03-06T17:46:25.972Z,40.20
2023-03-06T17:48:54.430Z,36.40
2023-03-06T17:51:21.762Z,42.53
2023-03-06T17:53:49.395Z,42.75
2023-03-06T17:56:16.808Z,40.63
2023-03-06T17:58:44.472Z,43.20
2023-03-06T18:01:17.847Z,40.63
2023-03-06T18:03:46.747Z,43.25
2023-03-06T18:06:14.666Z,42.95
2023-03-06T18:08:42.033Z,42.92
2023-03-06T18:11:10.092Z,47.15
2023-03-06T18:13:39.863Z,52.60
2023-03-06T18:16:08.187Z,48.25
2023-03-06T18:18:35.851Z,47.22
2023-03-06T18:21:09.113Z,43.92
2023-03-06T18:23:37.449Z,45.35
2023-03-06T18:26:09.746Z,46.15
2023-03-06T18:28:42.402Z,49.72
2023-03-06T18:31:27.866Z,50.45
2023-03-06T18:34:00.519Z,45.30
2023-03-06T18:36:30.535Z,46.88
2023-03-06T18:38:58.360Z,48.42
2023-03-06T18:41:26.005Z,47.20
2023-03-06T18:43:54.847Z,51.42
2023-03-06T18:46:22.676Z,51.17
2023-03-06T18:48:50.160Z,48.67
2023-03-06T18:51:20.436Z,47.67
2023-03-06T18:53:48.775Z,46.38
2023-03-06T18:56:18.703Z,48.13
2023-03-06T18:58:46.497Z,48.63
2023-03-06T19:01:14.479Z,51.95
2023-03-06T19:03:42.064Z,47.80
2023-03-06T19:06:12.146Z,54.78
2023-03-06T19:08:40.391Z,51.60
2023-03-06T19:11:13.353Z,53.13
2023-03-06T19:13:40.956Z,51.53
2023-03-06T19:16:08.898Z,53.33
2023-03-06T19:18:36.386Z,55.10
2023-03-06T19:21:11.614Z,53.85
2023-03-06T19:23:39.637Z,60.90
2023-03-06T19:26:07.624Z,57.40
2023-03-06T19:28:39.715Z,57.05
2023-03-06T19:31:21.746Z,58.90
2023-03-06T19:33:50.137Z,69.30
2023-03-06T19:36:18.764Z,62.05
2023-03-06T19:38:50.281Z,61.78
2023-03-06T19:41:17.870Z,60.55
2023-03-06T19:43:49.010Z,58.38
2023-03-06T19:46:16.481Z,59.25
2023-03-06T19:48:43.848Z,55.38
2023-03-06T19:51:11.471Z,56.13
2023-03-06T19:53:39.847Z,54.50
2023-03-06T19:56:09.457Z,48.13
2023-03-06T19:58:37.106Z,46.72
2023-03-06T20:01:16.162Z,47.15
2023-03-06T20:03:44.947Z,47.95
2023-03-06T20:06:21.049Z,46.42
2023-03-06T20:08:50.254Z,44.28
2023-03-06T20:11:28.586Z,43.13
2023-03-06T20:16:43.384Z,38.70
2023-03-06T20:19:34.362Z,35.75
2023-03-06T20:25:16.650Z,33.70
2023-03-06T20:27:49.750Z,35.28
2023-03-06T20:30:47.607Z,35.53
2023-03-06T20:33:32.701Z,32.38
2023-03-06T20:36:27.757Z,34.03
2023-03-06T20:38:57.944Z,35.45
2023-03-06T20:41:36.246Z,35.97
2023-03-06T20:44:28.312Z,21.67
2023-03-06T20:52:40.221Z,10.25
2023-03-06T20:58:03.513Z,6.43
2023-03-06T21:01:02.475Z,6.70
2023-03-06T21:03:37.477Z,8.30
2023-03-06T21:06:12.450Z,11.65
2023-03-06T21:11:45.464Z,6.88
2023-03-06T21:14:26.745Z,9.25
2023-03-06T21:20:12.811Z,7.88
2023-03-06T21:22:40.871Z,10.00
2023-03-06T21:25:26.661Z,6.57
2023-03-06T21:27:56.034Z,7.55
2023-03-06T21:33:21.604Z,10.52
2023-03-06T21:39:06.459Z,9.82
2023-03-06T21:41:35.913Z,13.18
2023-03-06T21:44:29.211Z,12.80
2023-03-06T21:46:56.557Z,8.93
2023-03-06T21:49:26.492Z,8.23
2023-03-06T21:54:56.365Z,9.77
2023-03-06T21:57:24.182Z,8.70
2023-03-06T21:59:53.993Z,14.68
2023-03-06T22:02:24.204Z,11.10
2023-03-06T22:04:53.454Z,7.28
2023-03-06T22:07:24.472Z,10.40
2023-03-06T22:09:55.100Z,9.82
2023-03-06T22:12:22.664Z,7.93
2023-03-06T22:17:53.884Z,10.82
2023-03-06T22:20:21.305Z,10.15
2023-03-06T22:22:49.032Z,15.02
2023-03-06T22:25:16.422Z,12.43
2023-03-06T22:27:46.917Z,17.83
2023-03-06T22:30:21.844Z,16.02
2023-03-06T22:32:52.625Z,18.30
2023-03-06T22:35:33.093Z,11.00
2023-03-06T22:38:15.904Z,15.35
2023-03-06T22:40:47.070Z,12.48
2023-03-06T22:43:33.543Z,12.18
2023-03-06T22:46:10.851Z,8.60
2023-03-06T22:49:01.086Z,13.35
2023-03-06T22:51:37.954Z,7.68
2023-03-06T22:54:22.140Z,10.25
2023-03-06T22:56:50.951Z,7.30
2023-03-06T22:59:39.619Z,9.23
2023-03-06T23:02:18.649Z,9.13
2023-03-06T23:05:13.670Z,11.85
2023-03-06T23:07:43.149Z,10.15
2023-03-06T23:10:40.696Z,13.90
2023-03-06T23:16:04.721Z,15.90
2023-03-06T23:21:35.545Z,16.83
2023-03-06T23:27:26.879Z,20.23
2023-03-06T23:30:20.034Z,16.92
2023-03-06T23:32:53.113Z,27.10
2023-03-06T23:35:35.122Z,17.65
2023-03-06T23:38:19.309Z,19.13
2023-03-06T23:40:46.763Z,16.45
2023-03-06T23:43:18.170Z,22.92
2023-03-06T23:46:07.308Z,14.60
2023-03-06T23:57:17.761Z,14.75
